Time;durP1;ratioP1;P1;durP2;ratioP2;P2;SDS_P1;SDS_P2;PMS_P1;PMS_P2;Temp;Humidity;BMP_temperature;BMP_pressure;BME280_temperature;BME280_humidity;BME280_pressure;Samples;Min_cycle;Max_cycle;Signal;HPM_P1;HPM_P2
2022/10/26 00:01:55;;;;;;;15.10;5.45;;;;;;;8.77;100.00;101130.16;6000728;28;20053;-67
2022/10/26 00:04:50;;;;;;;14.47;5.40;;;;;;;8.69;100.00;101124.66;6000995;28;20061;-68
2022/10/26 00:07:45;;;;;;;15.57;5.90;;;;;;;8.64;100.00;101129.44;6000818;28;20561;-67
2022/10/26 00:10:41;;;;;;;10.17;4.73;;;;;;;8.69;100.00;101132.56;6000089;28;20050;-67
2022/10/26 00:13:36;;;;;;;11.73;4.97;;;;;;;8.58;100.00;101119.38;5999901;28;20617;-68
2022/10/26 00:16:32;;;;;;;13.45;5.55;;;;;;;8.52;100.00;101134.88;6000572;28;20468;-68
2022/10/26 00:19:27;;;;;;;14.63;5.22;;;;;;;8.43;100.00;101119.75;6000556;28;20039;-68
2022/10/26 00:22:23;;;;;;;14.27;4.93;;;;;;;8.48;100.00;101133.47;6000335;28;20122;-68
2022/10/26 00:25:18;;;;;;;12.70;5.77;;;;;;;8.55;100.00;101129.34;6000764;28;20073;-68
2022/10/26 00:28:13;;;;;;;15.13;5.67;;;;;;;8.42;100.00;101128.66;6000717;28;20149;-68
2022/10/26 00:31:13;;;;;;;9.70;4.50;;;;;;;8.33;100.00;101119.66;5999905;28;20046;-68
2022/10/26 00:34:09;;;;;;;14.25;4.75;;;;;;;8.41;100.00;101134.91;6000256;28;20023;-68
2022/10/26 00:37:05;;;;;;;10.98;4.82;;;;;;;8.34;100.00;101116.88;6000457;28;20702;-67
2022/10/26 00:40:00;;;;;;;11.47;4.30;;;;;;;8.43;100.00;101130.31;5999569;28;20039;-68
2022/10/26 00:42:55;;;;;;;11.90;5.33;;;;;;;8.36;100.00;101114.97;5999902;28;20110;-68
2022/10/26 00:45:53;;;;;;;23.50;6.80;;;;;;;8.41;100.00;101127.81;6000330;28;20043;-68
2022/10/26 00:48:51;;;;;;;10.15;5.07;;;;;;;8.51;100.00;101138.47;5999832;28;20121;-68
2022/10/26 00:51:50;;;;;;;13.00;5.65;;;;;;;8.36;100.00;101128.19;5998608;28;20035;-68
2022/10/26 00:54:45;;;;;;;12.40;5.50;;;;;;;8.28;100.00;101133.22;5999634;28;20126;-68
2022/10/26 00:57:40;;;;;;;17.45;6.03;;;;;;;8.25;100.00;101138.72;5999797;28;20623;-67
2022/10/26 01:00:36;;;;;;;12.32;5.22;;;;;;;8.18;100.00;101120.84;5999480;28;20026;-68
2022/10/26 01:03:32;;;;;;;12.18;5.40;;;;;;;8.13;100.00;101123.81;5998414;28;20057;-68
2022/10/26 01:06:29;;;;;;;15.38;5.88;;;;;;;8.22;100.00;101128.41;5999886;28;20038;-68
2022/10/26 01:09:24;;;;;;;11.82;5.05;;;;;;;8.15;100.00;101121.91;5993112;28;20043;-68
2022/10/26 01:12:20;;;;;;;12.23;5.37;;;;;;;8.20;100.00;101119.75;5999281;28;20073;-68
2022/10/26 01:15:15;;;;;;;17.40;6.27;;;;;;;8.19;100.00;101128.63;6000005;28;20030;-68
2022/10/26 01:18:31;;;;;;;14.97;5.87;;;;;;;8.07;100.00;101116.38;5999512;28;20300;-68
2022/10/26 01:21:44;;;;;;;16.48;6.38;;;;;;;8.14;100.00;101128.16;5999198;28;20259;-67
2022/10/26 01:24:45;;;;;;;13.88;6.18;;;;;;;8.15;100.00;101127.19;5997645;28;20031;-68
2022/10/26 01:27:46;;;;;;;13.27;6.65;;;;;;;8.16;100.00;101122.75;5999261;28;20438;-68
2022/10/26 01:30:45;;;;;;;15.88;6.05;;;;;;;8.17;100.00;101125.28;5997082;28;20031;-67
2022/10/26 01:34:20;;;;;;;15.65;6.40;;;;;;;8.09;100.00;101114.47;5998242;28;20030;-68
2022/10/26 01:37:22;;;;;;;15.38;6.85;;;;;;;8.10;100.00;101113.50;6014163;28;20046;-68
2022/10/26 01:40:22;;;;;;;13.25;6.47;;;;;;;8.07;100.00;101108.44;5998259;28;20162;-67
2022/10/26 01:43:18;;;;;;;16.13;6.85;;;;;;;8.02;100.00;101097.41;5997412;28;20047;-68
2022/10/26 01:46:15;;;;;;;12.85;6.10;;;;;;;8.06;100.00;101106.78;5997876;28;20041;-67
2022/10/26 01:49:12;;;;;;;17.83;7.15;;;;;;;8.09;100.00;101093.34;5990909;28;20031;-68
2022/10/26 01:52:08;;;;;;;25.20;6.70;;;;;;;8.10;100.00;101110.84;5997304;28;20120;-68
2022/10/26 01:55:26;;;;;;;20.88;6.65;;;;;;;8.05;100.00;101101.63;5997222;28;20041;-67
2022/10/26 01:58:40;;;;;;;13.95;6.50;;;;;;;8.08;100.00;101115.44;5998510;28;20119;-67
2022/10/26 02:01:47;;;;;;;15.68;6.50;;;;;;;8.16;100.00;101115.66;5996933;28;20113;-67
2022/10/26 02:05:03;;;;;;;17.80;7.50;;;;;;;8.21;100.00;101108.22;5999044;28;20039;-67
2022/10/26 02:08:12;;;;;;;21.23;7.88;;;;;;;8.25;100.00;101101.75;5998404;28;20346;-67
2022/10/26 02:11:07;;;;;;;20.50;7.30;;;;;;;8.33;100.00;101107.28;5998377;28;20478;-67
2022/10/26 02:14:14;;;;;;;16.37;7.07;;;;;;;8.39;100.00;101098.03;5998303;28;20058;-67
2022/10/26 02:17:19;;;;;;;15.48;6.18;;;;;;;8.34;100.00;101082.53;5998850;28;20031;-67
2022/10/26 02:20:22;;;;;;;18.80;6.68;;;;;;;8.40;100.00;101083.03;5996826;28;20478;-67
2022/10/26 02:23:18;;;;;;;21.35;5.95;;;;;;;8.49;100.00;101087.56;5997684;28;20041;-68
2022/10/26 02:26:15;;;;;;;16.35;6.40;;;;;;;8.52;100.00;101087.31;5998973;28;20039;-68
2022/10/26 02:29:16;;;;;;;16.85;6.45;;;;;;;8.53;100.00;101083.72;5997163;28;20031;-67
2022/10/26 02:32:12;;;;;;;14.95;5.88;;;;;;;8.49;100.00;101072.53;5996737;28;20042;-67
2022/10/26 02:35:07;;;;;;;15.35;5.93;;;;;;;8.53;100.00;101073.97;5997310;28;20039;-67
2022/10/26 02:38:06;;;;;;;14.57;5.57;;;;;;;8.48;100.00;101067.38;5997072;28;20031;-67
2022/10/26 02:41:02;;;;;;;13.10;5.18;;;;;;;8.57;100.00;101075.41;5996021;28;20054;-67
2022/10/26 02:44:12;;;;;;;15.18;5.72;;;;;;;8.54;100.00;101058.94;5998525;28;20031;-67
2022/10/26 02:47:07;;;;;;;15.40;6.25;;;;;;;8.65;100.00;101069.47;5997373;28;20045;-67
2022/10/26 02:50:03;;;;;;;13.75;5.95;;;;;;;8.62;100.00;101057.34;5996401;28;20070;-67
2022/10/26 02:53:05;;;;;;;13.65;5.85;;;;;;;8.70;100.00;101064.66;5998276;28;20034;-67
2022/10/26 02:56:07;;;;;;;11.30;5.30;;;;;;;8.66;100.00;101048.22;5996955;28;20495;-67
2022/10/26 02:59:04;;;;;;;11.63;4.85;;;;;;;8.80;100.00;101060.31;5985958;28;20186;-67
2022/10/26 03:01:59;;;;;;;11.35;5.00;;;;;;;8.77;100.00;101050.84;5996895;28;20040;-67
2022/10/26 03:04:55;;;;;;;13.00;4.97;;;;;;;8.79;100.00;101048.06;5997114;28;20057;-67
2022/10/26 03:07:51;;;;;;;10.13;4.60;;;;;;;8.88;100.00;101049.94;5998278;28;20263;-67
2022/10/26 03:10:46;;;;;;;13.10;4.65;;;;;;;8.83;100.00;101045.00;5998594;28;20034;-67
2022/10/26 03:13:41;;;;;;;11.27;4.80;;;;;;;8.90;100.00;101051.50;6002876;28;20038;-67
2022/10/26 03:16:37;;;;;;;11.45;4.45;;;;;;;8.93;100.00;101055.69;6001973;28;20278;-67
2022/10/26 03:19:32;;;;;;;10.10;4.97;;;;;;;8.95;100.00;101056.38;6001797;28;20069;-67
2022/10/26 03:22:27;;;;;;;12.77;4.73;;;;;;;8.98;100.00;101050.84;6001717;28;20126;-67
2022/10/26 03:25:23;;;;;;;10.50;4.80;;;;;;;8.92;100.00;101038.13;6000627;28;20042;-67
2022/10/26 03:28:19;;;;;;;9.50;4.70;;;;;;;8.98;100.00;101043.75;6002138;28;20110;-67
2022/10/26 03:31:14;;;;;;;11.93;4.93;;;;;;;8.90;100.00;101025.03;6000814;28;20043;-67
2022/10/26 03:34:09;;;;;;;17.33;4.73;;;;;;;9.02;100.00;101049.66;6001907;28;20038;-67
2022/10/26 03:37:05;;;;;;;14.97;4.47;;;;;;;8.93;100.00;101035.38;6001940;28;20078;-67
2022/10/26 03:40:00;;;;;;;14.93;5.10;;;;;;;8.98;100.00;101049.06;6000750;28;20121;-67
2022/10/26 03:42:55;;;;;;;10.97;5.20;;;;;;;8.98;100.00;101038.47;5990069;28;20041;-67
2022/10/26 03:45:50;;;;;;;13.63;4.57;;;;;;;8.97;100.00;101030.66;6001220;28;20039;-67
2022/10/26 03:48:46;;;;;;;13.23;5.00;;;;;;;8.93;100.00;101018.66;6001533;28;20038;-66
2022/10/26 03:51:41;;;;;;;12.07;4.00;;;;;;;8.99;100.00;101029.56;6000592;28;20121;-66
2022/10/26 03:54:36;;;;;;;15.73;5.23;;;;;;;8.96;100.00;101019.25;6001261;28;20393;-67
2022/10/26 03:57:32;;;;;;;9.93;4.70;;;;;;;9.01;100.00;101024.16;6001546;28;20042;-67
2022/10/26 04:00:27;;;;;;;12.13;4.57;;;;;;;9.01;100.00;101026.78;6015855;28;20088;-67
2022/10/26 04:03:22;;;;;;;12.00;4.53;;;;;;;9.02;100.00;101028.47;6001568;28;20618;-67
2022/10/26 04:06:18;;;;;;;12.77;4.77;;;;;;;9.01;100.00;101025.94;6001063;28;20127;-67
2022/10/26 04:09:13;;;;;;;11.73;5.27;;;;;;;9.03;100.00;101027.50;6000793;28;20030;-67
2022/10/26 04:12:08;;;;;;;15.30;5.00;;;;;;;8.93;100.00;101008.09;6000509;28;20710;-67
2022/10/26 04:15:05;;;;;;;14.97;4.33;;;;;;;9.01;100.00;101015.38;6000971;28;20278;-67
2022/10/26 04:18:01;;;;;;;9.85;4.82;;;;;;;8.97;100.00;101020.06;6001307;28;20057;-67
2022/10/26 04:21:00;;;;;;;9.93;4.45;;;;;;;8.96;100.00;101013.13;6000328;28;20042;-67
2022/10/26 04:23:55;;;;;;;11.57;4.35;;;;;;;8.85;100.00;101008.72;5999831;28;20054;-67
2022/10/26 04:26:50;;;;;;;13.47;4.70;;;;;;;8.88;100.00;101024.34;6000929;28;20038;-67
2022/10/26 04:29:46;;;;;;;13.13;4.43;;;;;;;8.80;100.00;101015.38;5999053;28;20193;-67
2022/10/26 04:32:41;;;;;;;11.23;4.30;;;;;;;8.84;100.00;101019.41;5999640;28;20486;-67
2022/10/26 04:35:36;;;;;;;11.97;5.03;;;;;;;8.75;100.00;101014.91;6000555;28;20077;-67
2022/10/26 04:38:31;;;;;;;8.93;4.37;;;;;;;8.70;100.00;101009.13;6000492;28;20035;-67
2022/10/26 04:41:27;;;;;;;17.20;4.40;;;;;;;8.72;100.00;101013.38;5999535;28;20030;-67
2022/10/26 04:44:22;;;;;;;11.20;4.80;;;;;;;8.64;100.00;100999.09;5999925;28;20074;-67
2022/10/26 04:47:17;;;;;;;11.57;4.87;;;;;;;8.83;100.00;101017.75;6000325;28;20113;-67
2022/10/26 04:50:13;;;;;;;14.63;5.10;;;;;;;8.78;100.00;101012.84;5999496;28;20434;-67
2022/10/26 04:53:10;;;;;;;10.20;4.72;;;;;;;8.84;100.00;101019.41;6000290;28;20038;-67
2022/10/26 04:56:05;;;;;;;15.90;5.10;;;;;;;8.90;100.00;101014.47;5999378;28;20100;-67
2022/10/26 04:59:01;;;;;;;13.52;4.60;;;;;;;8.97;100.00;101023.56;5999841;28;20463;-66
2022/10/26 05:01:56;;;;;;;14.90;4.90;;;;;;;8.93;100.00;101008.09;5998884;28;20101;-67
2022/10/26 05:04:53;;;;;;;9.90;4.57;;;;;;;8.98;100.00;101009.38;5998884;28;20035;-67
2022/10/26 05:07:55;;;;;;;9.70;4.72;;;;;;;8.99;100.00;101011.03;5999374;28;20386;-67
2022/10/26 05:10:50;;;;;;;11.95;3.80;;;;;;;8.96;100.00;101015.75;5998751;28;20027;-67
2022/10/26 05:13:47;;;;;;;9.87;4.80;;;;;;;8.98;100.00;101008.53;5999702;28;20105;-67
2022/10/26 05:16:43;;;;;;;11.98;4.72;;;;;;;9.02;100.00;101017.06;5999617;28;20023;-67
2022/10/26 05:19:38;;;;;;;11.98;4.75;;;;;;;8.89;100.00;101004.84;5999559;28;20394;-67
2022/10/26 05:22:34;;;;;;;14.07;4.63;;;;;;;8.90;100.00;101019.75;5998835;28;20027;-67
2022/10/26 05:25:32;;;;;;;12.60;5.43;;;;;;;8.81;100.00;101014.38;5998990;28;20274;-67
2022/10/26 05:28:28;;;;;;;11.60;4.90;;;;;;;8.65;100.00;100998.09;5998702;28;20060;-67
2022/10/26 05:31:23;;;;;;;13.37;4.90;;;;;;;8.63;100.00;101005.34;5998454;28;20075;-68
2022/10/26 05:34:18;;;;;;;11.00;4.30;;;;;;;8.69;100.00;101015.41;5996033;28;20118;-67
2022/10/26 05:37:14;;;;;;;10.33;4.67;;;;;;;8.67;100.00;101004.94;5997469;28;20137;-67
2022/10/26 05:40:10;;;;;;;19.53;5.23;;;;;;;8.71;100.00;101010.81;5995259;28;20041;-67
2022/10/26 05:43:06;;;;;;;15.27;5.28;;;;;;;8.71;100.00;101010.81;5997139;28;20085;-67
2022/10/26 05:46:01;;;;;;;12.82;5.13;;;;;;;8.66;100.00;100999.81;5996513;28;20574;-67
2022/10/26 05:48:56;;;;;;;10.80;4.43;;;;;;;8.67;100.00;100998.84;5997966;28;20033;-67
2022/10/26 05:51:52;;;;;;;12.73;5.28;;;;;;;8.66;100.00;101005.94;5998202;28;20396;-67
2022/10/26 05:54:48;;;;;;;16.90;5.50;;;;;;;8.69;100.00;101007.47;5998714;28;20107;-67
2022/10/26 05:57:44;;;;;;;16.50;5.50;;;;;;;8.64;100.00;101012.31;5999157;28;20022;-67
2022/10/26 06:01:12;;;;;;;15.48;5.07;;;;;;;8.57;100.00;101011.13;5998032;28;20105;-67
2022/10/26 06:04:34;;;;;;;16.13;5.80;;;;;;;8.57;100.00;101024.34;5997732;28;20037;-68
2022/10/26 06:07:30;;;;;;;12.32;5.70;;;;;;;8.45;100.00;101017.41;5998646;28;20414;-68
2022/10/26 06:10:26;;;;;;;16.88;5.38;;;;;;;8.51;100.00;101022.19;5998145;28;20058;-67
2022/10/26 06:13:22;;;;;;;13.80;5.07;;;;;;;8.32;100.00;101018.41;5998799;28;20027;-68
2022/10/26 06:16:29;;;;;;;12.13;5.25;;;;;;;8.33;100.00;101024.53;5998240;28;20046;-68
2022/10/26 06:19:53;;;;;;;14.60;6.40;;;;;;;8.33;100.00;101032.47;5998590;28;20046;-68
2022/10/26 06:22:59;;;;;;;14.98;5.65;;;;;;;8.26;100.00;101029.44;5998500;28;20038;-68
2022/10/26 06:26:08;;;;;;;11.52;5.80;;;;;;;8.30;100.00;101038.84;5998420;28;20034;-68
2022/10/26 06:29:34;;;;;;;16.10;6.25;;;;;;;8.35;100.00;101034.00;5997361;28;20031;-68
2022/10/26 06:32:30;;;;;;;14.48;5.75;;;;;;;8.29;100.00;101034.50;5993380;28;20106;-68
2022/10/26 06:35:51;;;;;;;17.13;6.07;;;;;;;8.38;100.00;101031.13;5997958;28;20042;-68
2022/10/26 06:38:48;;;;;;;11.90;5.50;;;;;;;8.29;100.00;101017.81;6011461;28;20309;-68
2022/10/26 06:41:43;;;;;;;14.35;5.78;;;;;;;8.50;100.00;101045.16;5988355;28;20039;-69
2022/10/26 06:44:39;;;;;;;16.02;6.20;;;;;;;8.49;100.00;101043.47;5997618;28;20133;-68
2022/10/26 06:47:43;;;;;;;18.55;6.47;;;;;;;8.53;100.00;101044.91;6001219;28;20101;-69
2022/10/26 06:50:52;;;;;;;14.85;5.82;;;;;;;8.46;100.00;101040.22;6001009;28;20027;-68
2022/10/26 06:53:56;;;;;;;15.80;7.03;;;;;;;8.55;100.00;101050.91;6001391;28;20034;-69
2022/10/26 06:56:52;;;;;;;13.20;5.35;;;;;;;8.49;100.00;101043.47;6001173;28;20031;-69
2022/10/26 06:59:59;;;;;;;16.35;6.10;;;;;;;8.57;100.00;101058.69;6001489;28;20605;-69
2022/10/26 07:02:55;;;;;;;16.75;6.68;;;;;;;8.44;100.00;101047.44;5993535;28;20030;-69
2022/10/26 07:05:50;;;;;;;18.33;6.53;;;;;;;8.52;100.00;101060.88;6001964;28;20418;-68
2022/10/26 07:08:46;;;;;;;15.88;6.25;;;;;;;8.57;100.00;101063.97;5994080;28;20046;-69
2022/10/26 07:11:41;;;;;;;16.47;6.30;;;;;;;8.60;100.00;101055.81;6000382;28;20066;-68
2022/10/26 07:14:36;;;;;;;19.53;6.67;;;;;;;8.64;100.00;101050.13;6001621;28;20027;-68
2022/10/26 07:17:41;;;;;;;19.20;7.23;;;;;;;8.85;100.00;101053.69;6001711;28;20471;-69
2022/10/26 07:20:38;;;;;;;16.92;6.68;;;;;;;9.08;100.00;101057.03;6000873;28;20039;-68
2022/10/26 07:23:33;;;;;;;25.45;7.63;;;;;;;9.31;100.00;101066.56;6001415;28;20031;-68
2022/10/26 07:26:29;;;;;;;18.87;6.70;;;;;;;9.61;100.00;101072.84;6001585;28;20034;-69
2022/10/26 07:29:25;;;;;;;17.60;6.97;;;;;;;9.66;100.00;101055.59;6001572;28;20547;-68
2022/10/26 07:32:20;;;;;;;15.02;6.20;;;;;;;9.94;100.00;101064.66;6001375;28;20266;-68
2022/10/26 07:35:16;;;;;;;16.30;6.10;;;;;;;10.21;100.00;101067.59;6001749;28;20027;-69
2022/10/26 07:38:11;;;;;;;16.93;5.80;;;;;;;10.38;100.00;101076.69;5994757;28;20078;-68
2022/10/26 07:41:07;;;;;;;19.17;6.15;;;;;;;10.51;100.00;101085.25;5998168;28;20057;-68
2022/10/26 07:44:02;;;;;;;12.73;4.43;;;;;;;10.59;100.00;101062.38;5988708;28;20057;-69
2022/10/26 07:46:58;;;;;;;17.70;6.43;;;;;;;10.70;100.00;101067.56;6002032;28;20110;-68
2022/10/26 07:49:53;;;;;;;18.13;5.37;;;;;;;10.83;100.00;101058.47;6001262;28;20110;-69
2022/10/26 07:52:48;;;;;;;17.83;5.10;;;;;;;11.11;100.00;101062.94;6000992;28;20900;-68
2022/10/26 07:55:52;;;;;;;10.85;4.93;;;;;;;11.35;100.00;101076.59;6001236;28;20062;-68
2022/10/26 07:58:51;;;;;;;13.93;5.00;;;;;;;11.45;100.00;101064.16;5999325;28;20118;-68
2022/10/26 08:01:46;;;;;;;20.83;4.97;;;;;;;11.69;100.00;101064.53;6000511;28;20031;-68
2022/10/26 08:04:42;;;;;;;11.90;4.57;;;;;;;11.89;98.69;101071.47;6000907;28;20030;-68
2022/10/26 08:07:42;;;;;;;12.30;4.28;;;;;;;12.09;97.54;101071.38;6001303;28;20470;-69
2022/10/26 08:10:42;;;;;;;14.00;4.55;;;;;;;12.32;95.79;101064.69;6000052;28;20038;-68
2022/10/26 08:13:38;;;;;;;10.93;3.83;;;;;;;12.58;94.51;101072.78;6001199;28;20031;-68
2022/10/26 08:16:33;;;;;;;12.98;4.88;;;;;;;12.64;93.77;101081.00;6000919;28;20035;-68
2022/10/26 08:19:29;;;;;;;10.95;4.57;;;;;;;12.55;93.70;101079.25;6001166;28;20506;-68
2022/10/26 08:22:24;;;;;;;16.20;4.33;;;;;;;12.73;94.10;101088.09;6000465;28;20098;-68
2022/10/26 08:25:20;;;;;;;13.10;3.75;;;;;;;12.63;93.41;101075.84;6000960;28;20467;-68
2022/10/26 08:28:15;;;;;;;11.10;3.77;;;;;;;12.75;92.83;101083.44;6000706;28;20487;-68
2022/10/26 08:31:10;;;;;;;8.77;3.23;;;;;;;12.80;93.22;101089.16;5999809;28;20065;-69
2022/10/26 08:34:06;;;;;;;8.40;2.80;;;;;;;12.82;93.32;101084.53;6000894;28;20027;-69
2022/10/26 08:37:01;;;;;;;9.45;2.97;;;;;;;12.82;92.74;101081.88;6000701;28;20038;-69
2022/10/26 08:39:56;;;;;;;7.97;2.67;;;;;;;12.81;92.89;101064.22;5999001;28;20090;-68
2022/10/26 08:42:56;;;;;;;9.73;2.83;;;;;;;12.91;92.53;101080.94;5999574;28;20381;-68
2022/10/26 08:45:59;;;;;;;9.60;2.90;;;;;;;12.83;92.40;101066.72;5999417;28;20627;-68
2022/10/26 08:49:01;;;;;;;7.85;2.75;;;;;;;12.84;92.61;101090.53;5998674;28;20375;-68
2022/10/26 08:51:59;;;;;;;7.13;2.75;;;;;;;12.89;92.50;101077.59;5997863;28;20027;-68
2022/10/26 08:54:56;;;;;;;9.52;2.55;;;;;;;12.79;92.67;101070.69;5998620;28;20039;-68
2022/10/26 08:57:52;;;;;;;8.93;2.60;;;;;;;12.83;92.81;101067.56;5998269;28;20034;-68
2022/10/26 09:00:48;;;;;;;9.77;2.55;;;;;;;12.89;92.59;101076.75;5999099;28;20035;-68
2022/10/26 09:03:44;;;;;;;6.13;2.55;;;;;;;12.86;92.51;101069.06;5999264;28;20063;-68
2022/10/26 09:06:50;;;;;;;10.13;2.80;;;;;;;12.84;92.17;101055.94;5999284;28;20031;-68
2022/10/26 09:09:58;;;;;;;7.57;2.40;;;;;;;12.99;92.37;101062.38;5998066;28;20626;-68
2022/10/26 09:13:02;;;;;;;9.65;2.75;;;;;;;13.05;91.86;101064.44;5997684;28;20077;-68
2022/10/26 09:16:25;;;;;;;7.95;2.60;;;;;;;13.09;91.46;101057.88;5994611;28;20031;-68
2022/10/26 09:19:57;;;;;;;8.82;2.35;;;;;;;13.12;92.16;101067.38;5998460;28;20134;-68
2022/10/26 09:23:02;;;;;;;7.22;2.85;;;;;;;13.19;91.32;101060.41;5995020;28;20026;-68
2022/10/26 09:25:59;;;;;;;11.38;2.40;;;;;;;13.51;90.51;101067.81;5998577;28;20056;-68
2022/10/26 09:28:56;;;;;;;9.88;3.10;;;;;;;13.28;90.07;101056.84;5998673;28;20489;-68
2022/10/26 09:31:52;;;;;;;8.82;2.90;;;;;;;13.37;90.66;101065.72;5996332;28;20027;-68
2022/10/26 09:34:58;;;;;;;7.22;3.35;;;;;;;13.53;90.16;101060.53;5996721;28;20035;-68
2022/10/26 09:38:05;;;;;;;8.88;2.88;;;;;;;13.46;90.08;101060.28;5996333;28;20035;-68
2022/10/26 09:41:04;;;;;;;9.25;2.40;;;;;;;13.47;89.72;101064.66;5996143;28;20045;-68
2022/10/26 09:44:20;;;;;;;9.25;2.40;;;;;;;13.47;89.95;101061.13;5995640;28;20029;-68
2022/10/26 09:47:30;;;;;;;8.10;2.60;;;;;;;13.54;89.83;101063.00;5998619;28;20044;-68
2022/10/26 09:50:33;;;;;;;7.13;2.50;;;;;;;13.66;89.52;101060.94;5992361;28;20042;-68
2022/10/26 09:53:28;;;;;;;10.10;3.08;;;;;;;13.75;89.40;101077.81;5996849;28;20030;-68
2022/10/26 09:56:25;;;;;;;9.40;3.00;;;;;;;13.84;88.97;101064.34;5997983;28;20110;-68
2022/10/26 09:59:22;;;;;;;8.25;3.20;;;;;;;14.12;88.49;101067.66;5998819;28;20041;-68
2022/10/26 10:02:33;;;;;;;10.75;3.42;;;;;;;14.49;85.70;101060.16;5996786;28;20367;-68
2022/10/26 10:05:33;;;;;;;9.10;2.80;;;;;;;14.68;84.51;101064.38;5998074;28;20073;-69
2022/10/26 10:08:28;;;;;;;9.23;3.10;;;;;;;15.03;83.54;101072.09;5998204;28;20354;-68
2022/10/26 10:11:36;;;;;;;16.10;3.67;;;;;;;15.33;81.56;101065.25;5996927;28;20050;-68
2022/10/26 10:14:33;;;;;;;10.02;3.47;;;;;;;15.55;81.09;101074.44;5996460;28;20581;-68
2022/10/26 10:17:28;;;;;;;15.60;3.40;;;;;;;15.83;80.71;101089.09;5997776;28;20027;-68
2022/10/26 10:20:29;;;;;;;10.35;3.50;;;;;;;15.79;79.59;101071.75;5997400;28;20042;-68
2022/10/26 10:23:26;;;;;;;12.77;4.00;;;;;;;15.95;79.30;101075.19;6001257;28;20062;-68
2022/10/26 10:26:22;;;;;;;10.60;4.13;;;;;;;15.99;78.69;101078.38;6002387;28;20039;-69
2022/10/26 10:29:17;;;;;;;13.40;3.40;;;;;;;16.19;77.81;101071.63;6002748;28;20085;-68
2022/10/26 10:32:21;;;;;;;12.95;3.95;;;;;;;16.49;77.16;101088.72;6016827;28;20039;-68
2022/10/26 10:35:27;;;;;;;10.55;3.22;;;;;;;15.86;78.09;101078.06;6002664;28;20121;-68
2022/10/26 10:38:23;;;;;;;14.63;2.90;;;;;;;15.66;79.90;101087.47;6002042;28;20122;-69
2022/10/26 10:41:25;;;;;;;8.95;3.15;;;;;;;15.73;80.08;101085.78;6002148;28;20393;-68
2022/10/26 10:44:28;;;;;;;9.85;2.67;;;;;;;15.69;80.51;101063.06;6002492;28;20039;-68
2022/10/26 10:47:28;;;;;;;9.80;2.67;;;;;;;15.74;80.67;101079.41;6002840;28;20058;-68
2022/10/26 10:50:24;;;;;;;6.88;2.22;;;;;;;15.44;81.16;101062.22;6000607;28;20054;-68
2022/10/26 10:53:34;;;;;;;6.88;2.08;;;;;;;15.57;81.61;101084.00;6002073;28;20034;-68
2022/10/26 10:56:50;;;;;;;5.72;2.38;;;;;;;15.56;81.53;101078.78;6002238;28;20390;-68
2022/10/26 10:59:58;;;;;;;6.72;1.92;;;;;;;15.60;81.20;101075.59;5984413;28;20050;-68
2022/10/26 11:02:56;;;;;;;4.20;1.63;;;;;;;15.72;80.84;101081.44;6001760;28;20501;-68
2022/10/26 11:05:57;;;;;;;12.32;2.70;;;;;;;15.83;80.00;101089.09;6002306;28;20086;-68
2022/10/26 11:09:05;;;;;;;7.88;2.20;;;;;;;15.87;80.49;101085.09;6002274;28;20038;-68
2022/10/26 11:12:39;;;;;;;9.02;2.72;;;;;;;15.92;81.49;101088.94;6001477;28;20050;-68
2022/10/26 11:15:36;;;;;;;10.48;2.47;;;;;;;16.03;81.10;101095.75;5941550;28;20495;-68
2022/10/26 11:19:03;;;;;;;15.00;5.10;;;;;;;16.42;79.55;101087.72;6000610;28;20045;-68
2022/10/26 11:21:59;;;;;;;12.15;3.92;;;;;;;16.38;80.06;101084.59;5974686;28;20051;-68
2022/10/26 11:25:01;;;;;;;13.65;4.15;;;;;;;16.54;78.56;101089.03;6000847;28;20057;-68
2022/10/26 11:28:03;;;;;;;14.82;3.75;;;;;;;16.45;79.15;101077.50;6001093;28;20061;-68
2022/10/26 11:31:04;;;;;;;9.55;2.88;;;;;;;16.53;78.62;101082.84;6000232;28;20747;-67
2022/10/26 11:34:11;;;;;;;10.77;5.13;;;;;;;16.64;77.47;101090.50;5999970;28;20081;-69
2022/10/26 11:37:33;;;;;;;4.00;1.63;;;;;;;16.48;77.89;101095.06;6001584;28;20517;-68
2022/10/26 11:40:35;;;;;;;6.55;1.38;;;;;;;16.93;77.31;101092.47;5997650;28;20039;-68
2022/10/26 11:43:38;;;;;;;8.02;2.28;;;;;;;17.05;76.35;101088.38;5999973;28;20159;-68
2022/10/26 11:46:36;;;;;;;6.75;2.17;;;;;;;17.11;76.50;101097.56;6001125;28;20101;-68
2022/10/26 11:49:52;;;;;;;6.38;2.72;;;;;;;16.75;76.17;101088.41;5999631;28;20043;-67
2022/10/26 11:52:51;;;;;;;5.15;2.08;;;;;;;16.63;76.74;101088.00;5997949;28;20035;-68
2022/10/26 11:55:53;;;;;;;5.63;2.47;;;;;;;16.62;76.36;101086.31;5997702;28;20696;-68
2022/10/26 11:58:48;;;;;;;6.18;2.15;;;;;;;17.01;75.78;101086.25;5998089;28;20043;-68
2022/10/26 12:01:46;;;;;;;9.88;2.13;;;;;;;17.32;73.57;101092.34;6000503;28;20698;-68
2022/10/26 12:04:43;;;;;;;7.70;2.13;;;;;;;17.28;73.67;101093.75;5999948;28;20086;-68
2022/10/26 12:07:39;;;;;;;3.10;1.20;;;;;;;17.20;72.71;101089.25;6000361;28;20026;-67
2022/10/26 12:10:37;;;;;;;7.85;1.40;;;;;;;17.68;72.24;101096.09;6000212;28;20371;-68
2022/10/26 12:13:39;;;;;;;6.18;1.60;;;;;;;17.82;71.45;101100.66;5999802;28;20023;-68
2022/10/26 12:17:10;;;;;;;3.63;1.58;;;;;;;17.77;72.08;101100.34;5999986;28;20066;-68
2022/10/26 12:20:36;;;;;;;4.22;1.00;;;;;;;17.83;72.41;101110.34;6002487;28;20038;-68
2022/10/26 12:23:37;;;;;;;3.90;1.20;;;;;;;17.78;71.69;101103.88;5999730;28;20027;-68
2022/10/26 12:26:32;;;;;;;6.57;1.20;;;;;;;17.77;70.87;101103.03;5992167;28;20034;-68
2022/10/26 12:29:29;;;;;;;9.07;1.40;;;;;;;17.67;71.68;101112.34;5997450;28;20035;-68
2022/10/26 12:32:30;;;;;;;5.85;0.98;;;;;;;17.68;71.77;101101.47;5998627;28;20031;-68
2022/10/26 12:35:44;;;;;;;3.90;1.15;;;;;;;17.63;71.35;101103.03;5999909;28;20039;-68
2022/10/26 12:38:39;;;;;;;3.10;1.10;;;;;;;17.97;70.36;101111.38;6000109;28;20042;-68
2022/10/26 12:41:36;;;;;;;4.73;1.20;;;;;;;17.96;70.68;101108.91;5999458;28;20074;-68
2022/10/26 12:44:40;;;;;;;4.30;1.50;;;;;;;18.15;70.84;101121.75;5999846;28;20467;-68
2022/10/26 12:47:35;;;;;;;4.47;1.27;;;;;;;18.25;69.67;101125.00;6000071;28;20490;-68
2022/10/26 12:50:30;;;;;;;4.77;1.13;;;;;;;18.16;70.42;101115.34;5999304;28;20031;-68
2022/10/26 12:53:26;;;;;;;4.03;1.15;;;;;;;18.16;69.10;101118.88;5999407;28;20026;-68
2022/10/26 12:56:39;;;;;;;4.25;1.45;;;;;;;17.98;70.00;101104.16;5997988;28;20035;-68
2022/10/26 13:00:12;;;;;;;6.15;1.13;;;;;;;18.21;69.09;101115.63;5986980;28;20039;-68
2022/10/26 13:03:17;;;;;;;;;;;;;;;18.14;69.91;101115.56;6003923;28;20042;-68
2022/10/26 13:06:31;;;;;;;5.60;1.30;;;;;;;17.90;70.31;101101.56;5994662;28;19914;-68
2022/10/26 13:09:29;;;;;;;3.08;0.90;;;;;;;18.14;70.59;101114.72;5999096;28;20035;-68
2022/10/26 13:12:25;;;;;;;2.25;1.33;;;;;;;18.20;70.46;101105.94;5998394;28;20097;-68
2022/10/26 13:15:25;;;;;;;3.15;1.10;;;;;;;18.12;69.64;101097.97;5997573;28;20039;-68
2022/10/26 13:18:21;;;;;;;2.60;1.20;;;;;;;18.10;70.36;101102.69;5997930;28;20113;-67
2022/10/26 13:21:17;;;;;;;2.45;1.00;;;;;;;18.00;70.66;101111.00;5998198;28;20037;-68
2022/10/26 13:24:14;;;;;;;10.35;3.63;;;;;;;17.95;70.95;101104.53;5998489;28;20418;-68
2022/10/26 13:27:09;;;;;;;6.63;1.52;;;;;;;18.22;70.32;101104.72;5998422;28;20046;-68
2022/10/26 13:30:41;;;;;;;5.23;1.17;;;;;;;18.08;71.78;101093.97;5998450;28;20043;-68
2022/10/26 13:33:41;;;;;;;3.90;1.20;;;;;;;17.98;71.08;101106.84;5975398;28;20035;-69
2022/10/26 13:36:59;;;;;;;3.50;1.45;;;;;;;18.09;70.40;101117.13;5998942;28;20030;-68
2022/10/26 13:39:54;;;;;;;4.22;1.35;;;;;;;17.94;70.43;101097.50;5996402;28;20050;-68
2022/10/26 13:42:57;;;;;;;3.78;1.40;;;;;;;18.22;70.68;101114.63;5996539;28;20049;-68
2022/10/26 13:45:55;;;;;;;3.17;1.10;;;;;;;18.48;70.22;101109.63;5996578;28;20030;-68
2022/10/26 13:48:53;;;;;;;4.18;1.00;;;;;;;18.66;68.93;101114.59;5998357;28;20042;-68
2022/10/26 13:51:50;;;;;;;3.40;1.13;;;;;;;18.28;69.56;101120.09;5997679;28;20035;-68